createdAt,value
2022-10-18T00:02:00.314Z,3.88
2022-10-18T00:04:03.017Z,4.03
2022-10-18T00:06:06.441Z,3.42
2022-10-18T00:08:09.007Z,4.28
2022-10-18T00:10:11.733Z,4.13
2022-10-18T00:12:14.301Z,4.10
2022-10-18T00:14:16.911Z,3.90
2022-10-18T00:16:20.840Z,4.30
2022-10-18T00:18:24.175Z,3.92
2022-10-18T00:20:26.788Z,3.45
2022-10-18T00:22:29.630Z,4.03
2022-10-18T00:24:32.432Z,3.38
2022-10-18T00:26:35.065Z,3.78
2022-10-18T00:28:39.072Z,4.32
2022-10-18T00:30:41.777Z,3.90
2022-10-18T00:32:45.747Z,4.47
2022-10-18T00:34:48.556Z,4.50
2022-10-18T00:36:51.286Z,4.20
2022-10-18T00:38:54.542Z,4.22
2022-10-18T00:40:57.140Z,4.20
2022-10-18T00:42:59.853Z,4.18
2022-10-18T00:45:21.996Z,4.20
2022-10-18T00:47:24.598Z,4.07
2022-10-18T00:49:31.946Z,4.18
2022-10-18T00:51:39.356Z,3.92
2022-10-18T00:53:42.107Z,3.88
2022-10-18T00:55:45.407Z,4.03
2022-10-18T00:57:48.503Z,3.85
2022-10-18T00:59:51.564Z,4.20
2022-10-18T01:01:54.226Z,3.97
2022-10-18T01:03:58.303Z,5.65
2022-10-18T01:06:02.368Z,4.50
2022-10-18T01:08:27.306Z,4.18
2022-10-18T01:10:37.204Z,4.10
2022-10-18T01:12:49.392Z,4.20
2022-10-18T01:15:00.320Z,4.00
2022-10-18T01:17:09.295Z,4.40
2022-10-18T01:19:44.762Z,4.28
2022-10-18T01:21:55.320Z,4.18
2022-10-18T01:24:26.602Z,4.45
2022-10-18T01:26:42.874Z,4.40
2022-10-18T01:28:56.373Z,3.85
2022-10-18T01:31:02.950Z,4.20
2022-10-18T01:33:13.819Z,4.22
2022-10-18T01:35:19.932Z,4.13
2022-10-18T01:37:24.166Z,3.90
2022-10-18T01:39:30.763Z,3.70
2022-10-18T01:41:36.358Z,4.07
2022-10-18T01:43:41.639Z,4.00
2022-10-18T01:45:44.237Z,3.97
2022-10-18T01:47:49.377Z,3.58
2022-10-18T01:49:59.343Z,4.22
2022-10-18T01:52:02.027Z,4.57
2022-10-18T01:54:05.163Z,3.70
2022-10-18T01:56:19.656Z,3.90
2022-10-18T01:58:29.534Z,3.80
2022-10-18T02:00:39.119Z,3.63
2022-10-18T02:02:47.955Z,3.90
2022-10-18T02:04:58.262Z,3.70
2022-10-18T02:07:07.239Z,3.90
2022-10-18T02:09:14.101Z,3.58
2022-10-18T02:11:19.343Z,4.32
2022-10-18T02:13:23.722Z,3.90
2022-10-18T02:15:31.989Z,4.72
2022-10-18T02:17:35.012Z,3.70
2022-10-18T02:19:41.313Z,3.90
2022-10-18T02:21:48.258Z,3.95
2022-10-18T02:23:51.605Z,3.63
2022-10-18T02:25:54.767Z,3.83
2022-10-18T02:27:57.508Z,4.15
2022-10-18T02:30:00.306Z,4.22
2022-10-18T02:32:07.680Z,4.38
2022-10-18T02:34:17.801Z,3.33
2022-10-18T02:36:24.948Z,3.90
2022-10-18T02:38:30.816Z,3.50
2022-10-18T02:40:33.608Z,3.60
2022-10-18T02:42:37.373Z,3.50
2022-10-18T02:44:40.494Z,3.72
2022-10-18T02:46:43.648Z,3.67
2022-10-18T02:48:46.294Z,3.80
2022-10-18T02:50:48.915Z,4.00
2022-10-18T02:52:51.464Z,4.03
2022-10-18T02:54:55.443Z,4.10
2022-10-18T02:56:58.104Z,4.43
2022-10-18T02:59:00.742Z,3.53
2022-10-18T03:01:03.361Z,3.78
2022-10-18T03:03:05.987Z,3.60
2022-10-18T03:05:09.073Z,4.30
2022-10-18T03:07:11.667Z,4.03
2022-10-18T03:09:14.333Z,4.45
2022-10-18T03:11:18.295Z,4.03
2022-10-18T03:13:20.960Z,4.88
2022-10-18T03:15:23.595Z,4.20
2022-10-18T03:17:26.228Z,4.43
2022-10-18T03:19:28.829Z,4.47
2022-10-18T03:21:31.431Z,4.47
2022-10-18T03:23:34.384Z,4.63
2022-10-18T03:25:36.995Z,4.57
2022-10-18T03:27:40.948Z,4.40
2022-10-18T03:29:43.547Z,8.27
2022-10-18T03:31:46.123Z,8.85
2022-10-18T03:33:48.936Z,8.77
2022-10-18T03:35:51.508Z,9.05
2022-10-18T03:37:54.111Z,9.10
2022-10-18T03:39:56.647Z,8.57
2022-10-18T03:41:59.228Z,6.10
2022-10-18T03:44:03.249Z,7.05
2022-10-18T03:46:06.204Z,8.00
2022-10-18T03:48:08.794Z,5.35
2022-10-18T03:50:11.422Z,4.90
2022-10-18T03:52:14.103Z,4.82
2022-10-18T03:54:16.688Z,4.88
2022-10-18T03:56:19.225Z,5.00
2022-10-18T03:58:23.054Z,5.20
2022-10-18T04:00:27.060Z,4.72
2022-10-18T04:02:29.832Z,4.45
2022-10-18T04:04:32.601Z,4.40
2022-10-18T04:06:35.257Z,4.30
2022-10-18T04:08:37.843Z,4.60
2022-10-18T04:10:40.807Z,4.45
2022-10-18T04:12:43.368Z,3.42
2022-10-18T04:14:45.962Z,3.90
2022-10-18T04:16:49.969Z,3.80
2022-10-18T04:18:52.577Z,4.25
2022-10-18T04:20:55.176Z,3.80
2022-10-18T04:22:58.241Z,3.85
2022-10-18T04:25:01.233Z,4.75
2022-10-18T04:27:03.872Z,4.53
2022-10-18T04:29:06.800Z,3.95
2022-10-18T04:31:10.147Z,4.45
2022-10-18T04:33:14.081Z,4.05
2022-10-18T04:35:16.706Z,3.75
2022-10-18T04:37:19.438Z,3.45
2022-10-18T04:39:22.152Z,4.35
2022-10-18T04:41:24.792Z,4.10
2022-10-18T04:43:27.382Z,4.40
2022-10-18T04:45:29.986Z,4.03
2022-10-18T04:47:32.900Z,3.95
2022-10-18T04:49:37.137Z,4.30
2022-10-18T04:51:39.726Z,4.20
2022-10-18T04:53:42.294Z,4.30
2022-10-18T04:55:46.061Z,4.15
2022-10-18T04:57:48.729Z,3.92
2022-10-18T04:59:51.292Z,4.43
2022-10-18T05:01:54.008Z,4.30
2022-10-18T05:03:56.912Z,4.85
2022-10-18T05:06:02.727Z,4.70
2022-10-18T05:08:07.973Z,3.80
2022-10-18T05:10:10.929Z,4.05
2022-10-18T05:12:13.494Z,4.10
2022-10-18T05:14:16.087Z,4.22
2022-10-18T05:16:18.791Z,4.55
2022-10-18T05:18:21.653Z,3.95
2022-10-18T05:20:24.287Z,4.20
2022-10-18T05:22:28.587Z,4.30
2022-10-18T05:24:31.341Z,3.78
2022-10-18T05:26:33.863Z,4.15
2022-10-18T05:28:40.182Z,4.15
2022-10-18T05:30:43.352Z,3.53
2022-10-18T05:32:45.929Z,4.05
2022-10-18T05:34:48.579Z,4.18
2022-10-18T05:36:51.182Z,3.70
2022-10-18T05:38:56.296Z,3.95
2022-10-18T05:40:59.607Z,3.65
2022-10-18T05:43:02.283Z,3.83
2022-10-18T05:45:05.435Z,4.35
2022-10-18T05:47:08.018Z,3.85
2022-10-18T05:49:12.422Z,3.35
2022-10-18T05:51:15.180Z,3.33
2022-10-18T05:53:35.708Z,3.38
2022-10-18T05:55:40.956Z,3.30
2022-10-18T05:57:43.552Z,3.92
2022-10-18T05:59:46.191Z,3.83
2022-10-18T06:01:48.756Z,4.28
2022-10-18T06:03:51.515Z,3.80
2022-10-18T06:05:54.143Z,4.32
2022-10-18T06:07:57.341Z,3.67
2022-10-18T06:09:59.899Z,3.95
2022-10-18T06:12:04.020Z,3.63
2022-10-18T06:14:08.609Z,3.80
2022-10-18T06:16:11.815Z,3.53
2022-10-18T06:18:14.433Z,4.10
2022-10-18T06:20:17.247Z,4.28
2022-10-18T06:22:19.898Z,3.75
2022-10-18T06:24:22.777Z,3.70
2022-10-18T06:26:26.091Z,4.20
2022-10-18T06:28:30.858Z,4.18
2022-10-18T06:30:34.269Z,4.00
2022-10-18T06:32:36.876Z,4.30
2022-10-18T06:34:39.463Z,3.95
2022-10-18T06:36:42.056Z,4.10
2022-10-18T06:38:44.970Z,4.90
2022-10-18T06:40:49.037Z,4.50
2022-10-18T06:43:00.520Z,4.32
2022-10-18T06:45:15.912Z,3.80
2022-10-18T06:47:18.524Z,4.00
2022-10-18T06:49:21.179Z,3.97
2022-10-18T06:51:23.733Z,4.57
2022-10-18T06:53:27.456Z,3.97
2022-10-18T06:55:31.155Z,5.22
2022-10-18T06:57:33.690Z,6.25
2022-10-18T06:59:36.392Z,5.45
2022-10-18T07:01:40.401Z,5.80
2022-10-18T07:03:43.536Z,6.22
2022-10-18T07:05:46.107Z,4.70
2022-10-18T07:07:51.753Z,4.40
2022-10-18T07:09:58.193Z,5.82
2022-10-18T07:12:00.745Z,4.30
2022-10-18T07:14:04.893Z,4.47
2022-10-18T07:16:11.539Z,4.47
2022-10-18T07:18:18.121Z,4.65
2022-10-18T07:20:20.718Z,5.00
2022-10-18T07:22:27.010Z,3.92
2022-10-18T07:26:37.072Z,4.28
2022-10-18T07:28:39.958Z,4.78
2022-10-18T07:30:42.783Z,4.57
2022-10-18T07:32:45.869Z,4.03
2022-10-18T07:34:50.221Z,3.90
2022-10-18T07:36:52.932Z,4.10
2022-10-18T07:38:56.455Z,4.43
2022-10-18T07:41:00.605Z,4.65
2022-10-18T07:43:06.216Z,4.40
2022-10-18T07:45:10.452Z,4.75
2022-10-18T07:47:13.475Z,4.80
2022-10-18T07:49:17.193Z,3.97
2022-10-18T07:51:22.674Z,4.22
2022-10-18T07:53:25.848Z,4.07
2022-10-18T07:55:28.928Z,4.18
2022-10-18T07:57:31.878Z,5.30
2022-10-18T07:59:35.572Z,4.10
2022-10-18T08:01:38.319Z,3.85
2022-10-18T08:03:42.044Z,5.00
2022-10-18T08:05:44.628Z,4.32
2022-10-18T08:07:48.614Z,4.38
2022-10-18T08:09:51.269Z,4.20
2022-10-18T08:11:53.821Z,4.03
2022-10-18T08:13:56.408Z,5.00
2022-10-18T08:16:01.375Z,4.85
2022-10-18T08:18:04.158Z,5.13
2022-10-18T08:20:12.362Z,5.30
2022-10-18T08:22:24.685Z,5.88
2022-10-18T08:24:28.674Z,6.20
2022-10-18T08:26:31.259Z,6.00
2022-10-18T08:28:36.638Z,5.55
2022-10-18T08:30:39.513Z,5.85
2022-10-18T08:32:42.057Z,4.35
2022-10-18T08:34:44.724Z,4.78
2022-10-18T08:36:48.011Z,5.13
2022-10-18T08:38:51.085Z,5.22
2022-10-18T08:40:55.606Z,4.95
2022-10-18T08:43:04.452Z,4.95
2022-10-18T08:45:17.884Z,4.68
2022-10-18T08:47:35.692Z,4.82
2022-10-18T08:49:47.033Z,4.80
2022-10-18T08:51:52.210Z,4.63
2022-10-18T08:54:02.508Z,4.75
2022-10-18T08:56:14.727Z,5.75
2022-10-18T08:58:20.833Z,4.80
2022-10-18T09:00:25.958Z,4.63
2022-10-18T09:02:49.662Z,4.97
2022-10-18T09:04:59.508Z,4.55
2022-10-18T09:07:20.260Z,5.20
2022-10-18T09:09:36.521Z,4.75
2022-10-18T09:11:53.010Z,5.30
2022-10-18T09:14:29.012Z,5.78
2022-10-18T09:16:41.544Z,4.55
2022-10-18T09:18:59.721Z,5.18
2022-10-18T09:21:09.792Z,4.70
2022-10-18T09:23:20.208Z,4.85
2022-10-18T09:25:25.113Z,5.35
2022-10-18T09:27:38.786Z,4.88
2022-10-18T09:29:57.852Z,5.65
2022-10-18T09:32:08.396Z,4.85
2022-10-18T09:34:18.195Z,4.60
2022-10-18T09:36:23.793Z,4.97
2022-10-18T09:38:32.436Z,5.13
2022-10-18T09:40:39.931Z,5.07
2022-10-18T09:42:52.309Z,4.45
2022-10-18T09:44:59.733Z,5.07
2022-10-18T09:47:05.177Z,4.85
2022-10-18T09:49:16.466Z,5.43
2022-10-18T09:51:22.595Z,5.05
2022-10-18T09:53:35.216Z,5.95
2022-10-18T09:55:43.410Z,5.25
2022-10-18T09:58:44.574Z,5.38
2022-10-18T10:04:33.141Z,4.90
2022-10-18T10:07:19.415Z,5.30
2022-10-18T10:09:29.318Z,4.97
2022-10-18T10:11:35.250Z,5.65
2022-10-18T10:13:37.944Z,4.60
2022-10-18T10:15:42.574Z,4.63
2022-10-18T10:17:54.512Z,4.85
2022-10-18T10:20:00.370Z,5.50
2022-10-18T10:26:34.473Z,5.35
2022-10-18T10:30:29.743Z,4.72
2022-10-18T10:32:43.106Z,4.80
2022-10-18T10:34:45.975Z,4.43
2022-10-18T10:36:50.200Z,4.30
2022-10-18T10:39:05.791Z,5.45
2022-10-18T10:41:20.502Z,5.50
2022-10-18T10:43:42.547Z,4.78
2022-10-18T10:45:58.528Z,4.57
2022-10-18T10:48:20.780Z,5.10
2022-10-18T10:50:26.734Z,5.00
2022-10-18T10:52:31.536Z,5.13
2022-10-18T10:54:51.222Z,4.45
2022-10-18T10:56:59.130Z,3.90
2022-10-18T10:59:10.936Z,4.30
2022-10-18T11:01:27.232Z,4.22
2022-10-18T11:03:31.811Z,3.78
2022-10-18T11:05:44.211Z,3.45
2022-10-18T11:07:47.904Z,4.50
2022-10-18T11:09:56.972Z,3.78
2022-10-18T11:12:11.301Z,3.60
2022-10-18T11:14:26.586Z,3.85
2022-10-18T11:16:37.551Z,4.10
2022-10-18T11:18:43.841Z,3.60
2022-10-18T11:20:50.251Z,4.60
2022-10-18T11:23:01.133Z,4.30
2022-10-18T11:25:05.038Z,5.23
2022-10-18T11:27:15.944Z,3.67
2022-10-18T11:29:34.824Z,3.60
2022-10-18T11:31:46.105Z,3.85
2022-10-18T11:34:18.061Z,3.67
2022-10-18T11:36:27.629Z,3.65
2022-10-18T11:38:35.254Z,3.22
2022-10-18T11:40:51.870Z,3.42
2022-10-18T11:43:03.887Z,3.40
2022-10-18T11:45:20.384Z,4.22
2022-10-18T11:47:32.210Z,2.92
2022-10-18T11:50:02.732Z,3.42
2022-10-18T11:52:12.685Z,3.75
2022-10-18T11:54:36.600Z,3.03
2022-10-18T11:56:47.749Z,3.47
2022-10-18T11:59:03.385Z,3.08
2022-10-18T12:01:18.186Z,3.67
2022-10-18T12:03:34.826Z,3.28
2022-10-18T12:05:40.527Z,4.15
2022-10-18T12:07:51.156Z,3.65
2022-10-18T12:09:56.265Z,3.22
2022-10-18T12:12:03.794Z,3.95
2022-10-18T12:14:14.732Z,3.10
2022-10-18T12:16:38.892Z,3.00
2022-10-18T12:18:54.993Z,3.05
2022-10-18T12:21:00.112Z,3.28
2022-10-18T12:23:06.762Z,2.92
2022-10-18T12:25:14.829Z,2.78
2022-10-18T12:27:18.505Z,2.30
2022-10-18T12:29:28.552Z,3.17
2022-10-18T12:31:36.910Z,2.97
2022-10-18T12:33:43.187Z,4.05
2022-10-18T12:35:58.605Z,3.00
2022-10-18T12:38:16.707Z,2.53
2022-10-18T12:40:24.591Z,3.85
2022-10-18T12:42:29.700Z,2.50
2022-10-18T12:44:33.959Z,2.50
2022-10-18T12:46:47.977Z,2.42
2022-10-18T12:49:03.888Z,2.38
2022-10-18T12:51:15.434Z,2.17
2022-10-18T12:53:21.191Z,2.13
2022-10-18T12:55:36.733Z,2.00
2022-10-18T12:58:02.649Z,2.00
2022-10-18T13:00:06.092Z,2.20
2022-10-18T13:02:29.812Z,1.85
2022-10-18T13:04:38.234Z,1.75
2022-10-18T13:07:20.643Z,1.67
2022-10-18T13:09:23.247Z,1.95
2022-10-18T13:11:33.191Z,1.55
2022-10-18T13:13:46.227Z,1.60
2022-10-18T13:15:56.519Z,1.50
2022-10-18T13:18:06.331Z,1.65
2022-10-18T13:20:25.946Z,1.60
2022-10-18T13:22:53.966Z,1.85
2022-10-18T13:25:04.190Z,2.63
2022-10-18T13:27:36.902Z,1.67
2022-10-18T13:29:56.013Z,1.92
2022-10-18T13:32:04.010Z,2.17
2022-10-18T13:34:26.677Z,2.10
2022-10-18T13:36:33.739Z,2.28
2022-10-18T13:38:48.384Z,1.95
2022-10-18T13:41:02.425Z,2.03
2022-10-18T13:43:38.210Z,2.30
2022-10-18T13:45:53.960Z,3.60
2022-10-18T13:47:56.649Z,4.47
2022-10-18T13:50:18.088Z,4.85
2022-10-18T13:52:30.326Z,4.00
2022-10-18T13:54:55.269Z,4.10
2022-10-18T13:57:11.948Z,4.90
2022-10-18T13:59:38.183Z,4.28
2022-10-18T14:01:53.326Z,4.50
2022-10-18T14:04:32.700Z,4.28
2022-10-18T14:06:37.474Z,4.68
2022-10-18T14:08:45.111Z,4.40
2022-10-18T14:11:02.463Z,4.05
2022-10-18T14:13:07.676Z,3.85
2022-10-18T14:15:18.369Z,3.47
2022-10-18T14:17:29.461Z,4.68
2022-10-18T14:19:39.181Z,3.95
2022-10-18T14:21:48.775Z,3.17
2022-10-18T14:23:52.011Z,3.60
2022-10-18T14:26:06.573Z,3.40
2022-10-18T14:28:14.008Z,3.35
2022-10-18T14:30:20.093Z,2.65
2022-10-18T14:32:28.110Z,2.50
2022-10-18T14:34:31.212Z,2.63
2022-10-18T14:36:40.843Z,2.03
2022-10-18T14:38:51.290Z,2.97
2022-10-18T14:41:06.135Z,2.30
2022-10-18T14:43:13.146Z,2.00
2022-10-18T14:45:20.286Z,2.08
2022-10-18T14:47:25.456Z,2.60
2022-10-18T14:49:28.959Z,2.10
2022-10-18T14:51:34.954Z,2.08
2022-10-18T14:53:39.869Z,2.70
2022-10-18T14:55:44.115Z,3.45
2022-10-18T14:57:48.163Z,3.42
2022-10-18T14:59:55.617Z,3.95
2022-10-18T15:02:00.958Z,4.35
2022-10-18T15:04:07.673Z,4.70
2022-10-18T15:06:18.126Z,4.63
2022-10-18T15:08:21.673Z,4.82
2022-10-18T15:10:28.888Z,4.82
2022-10-18T15:12:40.946Z,4.38
2022-10-18T15:14:50.893Z,4.10
2022-10-18T15:17:00.062Z,3.58
2022-10-18T15:19:05.952Z,4.50
2022-10-18T15:21:22.943Z,3.90
2022-10-18T15:23:28.034Z,4.13
2022-10-18T15:25:33.885Z,3.42
2022-10-18T15:27:38.801Z,4.32
2022-10-18T15:29:43.533Z,3.72
2022-10-18T15:31:49.378Z,3.70
2022-10-18T15:33:52.616Z,3.65
2022-10-18T15:35:55.802Z,3.75
2022-10-18T15:38:00.167Z,3.88
2022-10-18T15:40:37.619Z,4.60
2022-10-18T15:42:40.244Z,4.60
2022-10-18T15:44:49.247Z,6.13
2022-10-18T15:46:55.727Z,6.20
2022-10-18T15:49:28.048Z,5.93
2022-10-18T15:51:48.471Z,4.32
2022-10-18T15:53:53.638Z,3.92
2022-10-18T15:56:01.521Z,3.67
2022-10-18T15:58:04.946Z,3.83
2022-10-18T16:00:17.336Z,4.20
2022-10-18T16:02:21.901Z,4.15
2022-10-18T16:04:26.793Z,4.72
2022-10-18T16:06:29.912Z,4.55
2022-10-18T16:08:37.032Z,4.18
2022-10-18T16:10:39.584Z,4.13
2022-10-18T16:12:42.352Z,3.72
2022-10-18T16:14:45.058Z,3.55
2022-10-18T16:16:49.461Z,3.00
2022-10-18T16:18:54.501Z,3.20
2022-10-18T16:20:57.128Z,3.55
2022-10-18T16:22:59.697Z,3.47
2022-10-18T16:25:02.264Z,4.20
2022-10-18T16:27:05.027Z,3.10
2022-10-18T16:29:12.051Z,3.67
2022-10-18T16:31:18.224Z,2.95
2022-10-18T16:33:21.720Z,2.90
2022-10-18T16:35:26.185Z,3.35
2022-10-18T16:37:28.753Z,3.78
2022-10-18T16:39:34.809Z,3.10
2022-10-18T16:41:37.429Z,3.50
2022-10-18T16:43:40.367Z,2.80
2022-10-18T16:45:43.033Z,3.28
2022-10-18T16:47:46.338Z,3.58
2022-10-18T16:49:50.087Z,3.67
2022-10-18T16:51:55.141Z,3.65
2022-10-18T16:54:00.009Z,3.78
2022-10-18T16:56:04.020Z,3.78
2022-10-18T16:58:07.512Z,4.00
2022-10-18T17:00:17.680Z,4.20
2022-10-18T17:02:20.306Z,3.75
2022-10-18T17:04:22.970Z,3.90
2022-10-18T17:06:28.031Z,3.80
2022-10-18T17:08:32.456Z,5.75
2022-10-18T17:10:35.077Z,4.45
2022-10-18T17:12:37.742Z,5.18
2022-10-18T17:14:40.363Z,4.03
2022-10-18T17:16:45.426Z,4.60
2022-10-18T17:18:50.968Z,3.78
2022-10-18T17:20:54.997Z,3.95
2022-10-18T17:22:57.524Z,3.80
2022-10-18T17:25:01.557Z,3.88
2022-10-18T17:27:04.290Z,3.70
2022-10-18T17:29:08.961Z,3.70
2022-10-18T17:31:11.582Z,3.85
2022-10-18T17:33:15.179Z,3.72
2022-10-18T17:35:17.796Z,4.72
2022-10-18T17:37:20.461Z,3.92
2022-10-18T17:39:23.105Z,4.30
2022-10-18T17:41:27.670Z,4.05
2022-10-18T17:43:30.338Z,4.47
2022-10-18T17:45:32.909Z,4.13
2022-10-18T17:47:35.734Z,4.20
2022-10-18T17:49:38.428Z,4.15
2022-10-18T17:51:42.752Z,4.35
2022-10-18T17:53:45.590Z,3.85
2022-10-18T17:55:48.128Z,4.28
2022-10-18T17:57:52.604Z,4.13
2022-10-18T17:59:56.232Z,3.90
2022-10-18T18:01:58.791Z,5.07
2022-10-18T18:04:02.883Z,4.32
2022-10-18T18:06:17.257Z,4.25
2022-10-18T18:08:19.797Z,4.00
2022-10-18T18:10:22.430Z,4.97
2022-10-18T18:12:25.138Z,4.13
2022-10-18T18:14:29.098Z,4.50
2022-10-18T18:16:32.772Z,4.05
2022-10-18T18:18:35.339Z,3.85
2022-10-18T18:20:37.891Z,3.83
2022-10-18T18:22:42.691Z,3.95
2022-10-18T18:24:45.592Z,4.50
2022-10-18T18:26:48.198Z,4.15
2022-10-18T18:28:51.055Z,4.85
2022-10-18T18:30:55.137Z,4.85
2022-10-18T18:32:57.686Z,4.65
2022-10-18T18:35:00.282Z,4.88
2022-10-18T18:37:02.973Z,4.75
2022-10-18T18:39:06.359Z,5.20
2022-10-18T18:41:11.275Z,6.95
2022-10-18T18:43:28.670Z,6.90
2022-10-18T18:45:31.207Z,6.82
2022-10-18T18:47:35.676Z,7.32
2022-10-18T18:49:38.271Z,7.28
2022-10-18T18:51:41.287Z,7.03
2022-10-18T18:53:45.560Z,7.43
2022-10-18T18:55:50.642Z,6.60
2022-10-18T18:57:53.215Z,6.75
2022-10-18T18:59:55.839Z,8.65
2022-10-18T19:01:58.499Z,7.15
2022-10-18T19:04:03.414Z,6.78
2022-10-18T19:06:07.789Z,6.75
2022-10-18T19:08:10.439Z,6.30
2022-10-18T19:10:13.326Z,7.05
2022-10-18T19:12:20.535Z,5.93
2022-10-18T19:14:25.829Z,5.65
2022-10-18T19:16:30.478Z,5.70
2022-10-18T19:18:33.521Z,5.88
2022-10-18T19:20:37.453Z,6.43
2022-10-18T19:22:40.430Z,6.43
2022-10-18T19:24:43.089Z,6.40
2022-10-18T19:26:48.848Z,7.75
2022-10-18T19:28:51.589Z,8.75
2022-10-18T19:30:56.032Z,6.50
2022-10-18T19:33:04.124Z,5.95
2022-10-18T19:35:07.324Z,6.30
2022-10-18T19:37:13.124Z,6.53
2022-10-18T19:39:18.647Z,7.15
2022-10-18T19:41:21.529Z,6.72
2022-10-18T19:43:24.335Z,6.70
2022-10-18T19:45:26.919Z,6.60
2022-10-18T19:47:29.504Z,6.82
2022-10-18T19:49:32.231Z,6.53
2022-10-18T19:51:34.931Z,7.05
2022-10-18T19:53:39.303Z,6.90
2022-10-18T19:55:41.885Z,6.90
2022-10-18T19:57:44.431Z,7.35
2022-10-18T19:59:47.098Z,8.13
2022-10-18T20:01:49.711Z,6.82
2022-10-18T20:03:52.414Z,7.32
2022-10-18T20:05:56.505Z,7.40
2022-10-18T20:07:59.128Z,7.00
2022-10-18T20:10:03.275Z,7.28
2022-10-18T20:12:06.305Z,6.40
2022-10-18T20:14:09.571Z,7.55
2022-10-18T20:16:14.420Z,7.03
2022-10-18T20:18:18.418Z,7.28
2022-10-18T20:20:21.074Z,6.55
2022-10-18T20:22:23.927Z,7.97
2022-10-18T20:24:26.655Z,7.35
2022-10-18T20:26:30.702Z,7.20
2022-10-18T20:28:33.893Z,7.40
2022-10-18T20:30:36.677Z,8.65
2022-10-18T20:32:39.255Z,7.18
2022-10-18T20:34:41.893Z,9.02
2022-10-18T20:36:44.539Z,7.85
2022-10-18T20:38:48.497Z,8.52
2022-10-18T20:40:51.189Z,7.68
2022-10-18T20:42:55.219Z,7.97
2022-10-18T20:44:58.003Z,7.78
2022-10-18T20:47:00.692Z,7.03
2022-10-18T20:49:03.997Z,7.47
2022-10-18T20:51:08.183Z,6.70
2022-10-18T20:53:10.717Z,6.95
2022-10-18T20:55:13.389Z,7.13
2022-10-18T20:57:15.989Z,6.57
2022-10-18T20:59:19.895Z,7.70
2022-10-18T21:01:24.608Z,6.47
2022-10-18T21:03:27.219Z,6.93
2022-10-18T21:05:30.044Z,6.90
2022-10-18T21:07:32.831Z,7.32
2022-10-18T21:09:35.584Z,6.47
2022-10-18T21:11:39.651Z,6.95
2022-10-18T21:13:42.315Z,6.88
2022-10-18T21:15:54.813Z,7.60
2022-10-18T21:17:57.736Z,7.18
2022-10-18T21:20:00.956Z,8.32
2022-10-18T21:22:03.571Z,6.88
2022-10-18T21:24:07.890Z,6.68
2022-10-18T21:26:15.075Z,6.70
2022-10-18T21:28:18.173Z,7.03
2022-10-18T21:30:20.790Z,6.90
2022-10-18T21:32:24.836Z,6.97
2022-10-18T21:34:27.498Z,6.75
2022-10-18T21:36:32.355Z,6.95
2022-10-18T21:38:35.028Z,7.00
2022-10-18T21:40:39.665Z,6.57
2022-10-18T21:42:42.268Z,7.30
2022-10-18T21:44:44.976Z,7.38
2022-10-18T21:46:47.696Z,7.57
2022-10-18T21:48:53.133Z,6.90
2022-10-18T21:50:56.003Z,6.97
2022-10-18T21:52:58.591Z,6.85
2022-10-18T21:55:01.395Z,6.78
2022-10-18T21:57:04.083Z,7.50
2022-10-18T21:59:06.759Z,6.82
2022-10-18T22:01:09.863Z,6.45
2022-10-18T22:03:14.641Z,6.85
2022-10-18T22:05:19.045Z,7.38
2022-10-18T22:07:21.778Z,6.07
2022-10-18T22:09:24.421Z,6.93
2022-10-18T22:11:29.950Z,7.05
2022-10-18T22:13:32.891Z,6.25
2022-10-18T22:17:43.041Z,6.95
2022-10-18T22:19:47.253Z,6.43
2022-10-18T22:21:51.339Z,6.55
2022-10-18T22:23:56.913Z,6.60
2022-10-18T22:26:03.555Z,6.50
2022-10-18T22:28:06.431Z,6.38
2022-10-18T22:30:10.035Z,6.65
2022-10-18T22:32:12.687Z,6.72
2022-10-18T22:34:17.993Z,6.88
2022-10-18T22:36:20.638Z,5.95
2022-10-18T22:38:24.668Z,5.97
2022-10-18T22:40:27.262Z,5.80
2022-10-18T22:42:29.933Z,5.90
2022-10-18T22:44:34.011Z,6.15
2022-10-18T22:46:36.767Z,5.95
2022-10-18T22:48:40.128Z,6.40
2022-10-18T22:50:42.712Z,6.28
2022-10-18T22:52:45.375Z,6.00
2022-10-18T22:54:52.195Z,6.00
2022-10-18T22:56:54.872Z,5.60
2022-10-18T22:58:57.481Z,5.60
2022-10-18T23:01:04.883Z,6.00
2022-10-18T23:03:07.497Z,6.00
2022-10-18T23:05:10.291Z,5.25
2022-10-18T23:07:12.953Z,5.70
2022-10-18T23:09:15.613Z,5.78
2022-10-18T23:11:20.287Z,6.38
2022-10-18T23:13:23.359Z,6.10
2022-10-18T23:15:25.977Z,6.78
2022-10-18T23:17:28.610Z,7.00
2022-10-18T23:19:31.205Z,9.35
2022-10-18T23:21:35.101Z,8.75
2022-10-18T23:23:40.107Z,8.65
2022-10-18T23:25:42.678Z,9.75
2022-10-18T23:27:46.651Z,10.05
2022-10-18T23:29:49.304Z,9.98
2022-10-18T23:31:52.461Z,9.82
2022-10-18T23:33:57.727Z,10.02
2022-10-18T23:36:00.778Z,9.02
2022-10-18T23:38:03.395Z,9.07
2022-10-18T23:40:06.973Z,9.40
2022-10-18T23:42:09.557Z,9.32
2022-10-18T23:44:13.528Z,8.13
2022-10-18T23:46:18.026Z,9.57
2022-10-18T23:48:20.669Z,9.27
2022-10-18T23:50:23.233Z,9.75
2022-10-18T23:52:25.943Z,9.30
2022-10-18T23:54:29.547Z,9.65
2022-10-18T23:56:32.171Z,10.10
2022-10-18T23:58:36.537Z,9.90
